createdAt,value
2023-04-25T00:00:38.476Z,0.00
2023-04-25T00:01:38.448Z,0.00
2023-04-25T00:02:43.779Z,0.00
2023-04-25T00:03:38.669Z,0.00
2023-04-25T00:04:38.768Z,0.00
2023-04-25T00:05:38.444Z,0.00
2023-04-25T00:06:38.420Z,0.00
2023-04-25T00:07:38.397Z,0.00
2023-04-25T00:08:38.374Z,0.00
2023-04-25T00:09:38.367Z,0.00
2023-04-25T00:10:38.353Z,0.00
2023-04-25T00:11:38.349Z,0.00
2023-04-25T00:12:38.341Z,0.00
2023-04-25T00:13:43.338Z,0.00
2023-04-25T00:14:38.309Z,0.00
2023-04-25T00:15:38.298Z,0.00
2023-04-25T00:16:38.405Z,0.00
2023-04-25T00:17:38.320Z,0.00
2023-04-25T00:18:38.276Z,0.00
2023-04-25T00:19:38.260Z,0.00
2023-04-25T00:20:38.249Z,0.00
2023-04-25T00:21:38.222Z,0.00
2023-04-25T00:22:38.214Z,0.00
2023-04-25T00:23:38.218Z,0.00
2023-04-25T00:24:43.208Z,0.00
2023-04-25T00:25:38.186Z,0.00
2023-04-25T00:26:38.170Z,0.00
2023-04-25T00:27:38.154Z,0.00
2023-04-25T00:28:38.162Z,0.00
2023-04-25T00:29:38.149Z,0.00
2023-04-25T00:30:38.131Z,0.00
2023-04-25T00:31:38.151Z,0.00
2023-04-25T00:32:38.139Z,0.00
2023-04-25T00:33:38.094Z,0.00
2023-04-25T00:34:38.079Z,0.00
2023-04-25T00:35:43.211Z,0.00
2023-04-25T00:36:38.059Z,0.00
2023-04-25T00:37:38.065Z,0.00
2023-04-25T00:38:38.027Z,0.00
2023-04-25T00:39:38.020Z,0.00
2023-04-25T00:40:38.012Z,0.00
2023-04-25T00:41:38.017Z,0.00
2023-04-25T00:42:37.985Z,0.00
2023-04-25T00:43:37.978Z,0.00
2023-04-25T00:44:37.980Z,0.00
2023-04-25T00:45:37.954Z,0.00
2023-04-25T00:46:43.009Z,0.00
2023-04-25T00:47:37.963Z,0.00
2023-04-25T00:48:37.914Z,0.00
2023-04-25T00:49:37.910Z,0.00
2023-04-25T00:50:37.890Z,0.00
2023-04-25T00:51:37.891Z,0.00
2023-04-25T00:52:37.876Z,0.00
2023-04-25T00:53:37.867Z,0.00
2023-04-25T00:54:37.846Z,0.00
2023-04-25T00:55:37.838Z,0.00
2023-04-25T00:56:37.835Z,0.00
2023-04-25T00:57:42.850Z,0.00
2023-04-25T00:58:37.829Z,0.00
2023-04-25T00:59:37.807Z,0.00
2023-04-25T01:00:37.846Z,0.00
2023-04-25T01:01:37.820Z,0.00
2023-04-25T01:02:37.843Z,0.00
2023-04-25T01:03:37.870Z,0.00
2023-04-25T01:04:37.733Z,0.00
2023-04-25T01:05:37.743Z,0.00
2023-04-25T01:06:37.721Z,0.00
2023-04-25T01:07:37.701Z,0.00
2023-04-25T01:08:42.722Z,0.00
2023-04-25T01:09:37.681Z,0.00
2023-04-25T01:10:37.678Z,0.00
2023-04-25T01:11:37.673Z,0.00
2023-04-25T01:12:37.654Z,0.00
2023-04-25T01:13:37.643Z,0.00
2023-04-25T01:14:37.624Z,0.00
2023-04-25T01:15:37.616Z,0.00
2023-04-25T01:16:37.684Z,0.00
2023-04-25T01:17:37.674Z,0.00
2023-04-25T01:18:37.578Z,0.00
2023-04-25T01:19:42.599Z,0.00
2023-04-25T01:20:37.569Z,0.00
2023-04-25T01:21:37.541Z,0.00
2023-04-25T01:22:37.533Z,0.00
2023-04-25T01:23:37.549Z,0.00
2023-04-25T01:24:37.517Z,0.00
2023-04-25T01:25:37.500Z,0.00
2023-04-25T01:26:37.530Z,0.00
2023-04-25T01:27:37.475Z,0.00
2023-04-25T01:28:37.471Z,0.00
2023-04-25T01:29:37.488Z,0.00
2023-04-25T01:30:42.479Z,0.00
2023-04-25T01:31:37.475Z,0.00
2023-04-25T01:32:37.468Z,0.00
2023-04-25T01:33:37.409Z,0.00
2023-04-25T01:34:37.397Z,0.00
2023-04-25T01:35:37.403Z,0.00
2023-04-25T01:36:37.380Z,0.00
2023-04-25T01:37:37.362Z,0.00
2023-04-25T01:38:37.349Z,0.00
2023-04-25T01:39:37.348Z,0.00
2023-04-25T01:40:37.344Z,0.00
2023-04-25T01:41:42.364Z,0.00
2023-04-25T01:42:37.304Z,0.00
2023-04-25T01:43:37.294Z,0.00
2023-04-25T01:44:37.282Z,0.00
2023-04-25T01:45:37.275Z,0.00
2023-04-25T01:46:37.330Z,0.00
2023-04-25T01:47:37.291Z,0.00
2023-04-25T01:48:37.362Z,0.00
2023-04-25T01:49:37.235Z,0.00
2023-04-25T01:50:37.226Z,0.00
2023-04-25T01:51:37.207Z,0.00
2023-04-25T01:52:42.214Z,0.00
2023-04-25T01:53:37.205Z,0.00
2023-04-25T01:54:37.169Z,0.00
2023-04-25T01:55:37.169Z,0.00
2023-04-25T01:56:37.162Z,0.00
2023-04-25T01:57:37.141Z,0.00
2023-04-25T01:58:37.123Z,0.00
2023-04-25T01:59:37.136Z,0.00
2023-04-25T02:00:37.129Z,0.00
2023-04-25T02:01:37.166Z,0.00
2023-04-25T02:02:37.156Z,0.00
2023-04-25T02:03:42.319Z,0.00
2023-04-25T02:04:37.179Z,0.00
2023-04-25T02:05:37.075Z,0.00
2023-04-25T02:06:37.052Z,0.00
2023-04-25T02:07:37.031Z,0.00
2023-04-25T02:08:37.017Z,0.00
2023-04-25T02:09:37.003Z,0.00
2023-04-25T02:10:36.989Z,0.00
2023-04-25T02:11:37.048Z,0.00
2023-04-25T02:12:36.978Z,0.00
2023-04-25T02:13:36.956Z,0.00
2023-04-25T02:14:41.968Z,0.00
2023-04-25T02:15:36.954Z,0.00
2023-04-25T02:16:37.048Z,0.00
2023-04-25T02:17:36.946Z,0.00
2023-04-25T02:18:36.907Z,0.00
2023-04-25T02:19:36.913Z,0.00
2023-04-25T02:20:36.882Z,0.00
2023-04-25T02:21:36.949Z,0.00
2023-04-25T02:22:36.863Z,0.00
2023-04-25T02:23:36.870Z,0.00
2023-04-25T02:24:36.836Z,0.00
2023-04-25T02:25:41.854Z,0.00
2023-04-25T02:26:36.825Z,0.00
2023-04-25T02:27:36.804Z,0.00
2023-04-25T02:28:36.860Z,0.00
2023-04-25T02:29:36.802Z,0.00
2023-04-25T02:30:36.782Z,0.00
2023-04-25T02:31:36.806Z,0.00
2023-04-25T02:32:36.813Z,0.00
2023-04-25T02:33:36.739Z,0.00
2023-04-25T02:34:36.721Z,0.00
2023-04-25T02:35:36.760Z,0.00
2023-04-25T02:36:41.744Z,0.00
2023-04-25T02:37:36.687Z,0.00
2023-04-25T02:38:36.675Z,0.00
2023-04-25T02:39:36.662Z,0.00
2023-04-25T02:40:36.677Z,0.00
2023-04-25T02:41:36.681Z,0.00
2023-04-25T02:42:36.632Z,0.00
2023-04-25T02:43:36.619Z,0.00
2023-04-25T02:44:36.613Z,0.00
2023-04-25T02:45:36.598Z,0.00
2023-04-25T02:46:39.384Z,0.00
2023-04-25T02:47:41.696Z,0.00
2023-04-25T02:48:36.565Z,0.00
2023-04-25T02:49:36.552Z,0.00
2023-04-25T02:50:36.565Z,0.00
2023-04-25T02:51:36.592Z,0.00
2023-04-25T02:52:36.518Z,0.00
2023-04-25T02:53:36.530Z,0.00
2023-04-25T02:54:36.493Z,0.00
2023-04-25T02:55:36.486Z,0.00
2023-04-25T02:56:36.488Z,0.00
2023-04-25T02:57:36.475Z,0.00
2023-04-25T02:58:41.468Z,0.00
2023-04-25T02:59:36.451Z,0.00
2023-04-25T03:00:36.453Z,0.00
2023-04-25T03:01:36.414Z,0.00
2023-04-25T03:02:36.486Z,0.00
2023-04-25T03:03:36.418Z,0.00
2023-04-25T03:04:36.434Z,0.00
2023-04-25T03:05:36.398Z,0.00
2023-04-25T03:06:36.365Z,0.00
2023-04-25T03:07:36.370Z,0.00
2023-04-25T03:08:36.337Z,0.00
2023-04-25T03:09:41.346Z,0.00
2023-04-25T03:10:36.307Z,0.00
2023-04-25T03:11:36.338Z,0.00
2023-04-25T03:12:36.287Z,0.00
2023-04-25T03:13:36.287Z,0.00
2023-04-25T03:14:36.269Z,0.00
2023-04-25T03:15:36.260Z,0.00
2023-04-25T03:16:36.302Z,0.00
2023-04-25T03:17:36.261Z,0.00
2023-04-25T03:18:36.218Z,0.00
2023-04-25T03:19:36.209Z,0.00
2023-04-25T03:20:41.219Z,0.00
2023-04-25T03:21:36.194Z,0.00
2023-04-25T03:22:36.192Z,0.00
2023-04-25T03:23:36.192Z,0.00
2023-04-25T03:24:36.161Z,0.00
2023-04-25T03:25:36.142Z,0.00
2023-04-25T03:26:36.139Z,0.00
2023-04-25T03:27:36.119Z,0.00
2023-04-25T03:28:36.107Z,0.00
2023-04-25T03:29:36.120Z,0.00
2023-04-25T03:30:36.088Z,0.00
2023-04-25T03:31:41.130Z,0.00
2023-04-25T03:32:36.095Z,0.00
2023-04-25T03:33:36.070Z,0.00
2023-04-25T03:34:36.039Z,0.00
2023-04-25T03:35:36.041Z,0.00
2023-04-25T03:36:36.028Z,0.00
2023-04-25T03:37:36.007Z,0.00
2023-04-25T03:38:36.026Z,0.00
2023-04-25T03:39:36.029Z,0.00
2023-04-25T03:40:35.994Z,0.00
2023-04-25T03:41:35.983Z,0.00
2023-04-25T03:42:42.156Z,0.00
2023-04-25T03:43:35.941Z,0.00
2023-04-25T03:44:35.922Z,0.00
2023-04-25T03:45:35.938Z,0.00
2023-04-25T03:46:35.911Z,0.00
2023-04-25T03:47:35.953Z,0.00
2023-04-25T03:48:35.903Z,0.00
2023-04-25T03:49:35.871Z,0.00
2023-04-25T03:50:35.864Z,0.00
2023-04-25T03:51:35.855Z,0.00
2023-04-25T03:52:35.856Z,0.00
2023-04-25T03:53:40.898Z,4.00
2023-04-25T03:54:35.813Z,4.00
2023-04-25T03:55:35.822Z,4.00
2023-04-25T03:56:35.812Z,4.00
2023-04-25T03:57:35.802Z,4.00
2023-04-25T03:58:35.780Z,0.00
2023-04-25T03:59:35.772Z,4.00
2023-04-25T04:00:35.745Z,4.00
2023-04-25T04:01:35.735Z,4.00
2023-04-25T04:02:35.941Z,4.00
2023-04-25T04:03:35.857Z,4.00
2023-04-25T04:04:41.163Z,4.00
2023-04-25T04:05:35.821Z,8.00
2023-04-25T04:06:35.678Z,12.00
2023-04-25T04:07:35.676Z,16.00
2023-04-25T04:08:35.661Z,16.00
2023-04-25T04:09:35.641Z,24.00
2023-04-25T04:10:35.629Z,24.00
2023-04-25T04:11:35.658Z,28.00
2023-04-25T04:12:35.623Z,32.00
2023-04-25T04:13:35.607Z,32.00
2023-04-25T04:14:35.590Z,36.00
2023-04-25T04:15:40.663Z,40.00
2023-04-25T04:16:35.575Z,44.00
2023-04-25T04:17:35.676Z,44.00
2023-04-25T04:18:35.542Z,44.00
2023-04-25T04:19:35.529Z,52.00
2023-04-25T04:20:35.518Z,64.00
2023-04-25T04:21:35.506Z,72.00
2023-04-25T04:22:35.506Z,84.00
2023-04-25T04:23:36.192Z,84.00
2023-04-25T04:24:35.479Z,76.00
2023-04-25T04:25:35.459Z,64.00
2023-04-25T04:26:40.494Z,68.00
2023-04-25T04:27:35.483Z,60.00
2023-04-25T04:28:35.436Z,52.00
2023-04-25T04:29:35.443Z,60.00
2023-04-25T04:30:35.405Z,60.00
2023-04-25T04:31:35.498Z,56.00
2023-04-25T04:32:35.459Z,44.00
2023-04-25T04:33:35.374Z,48.00
2023-04-25T04:34:35.378Z,76.00
2023-04-25T04:35:35.371Z,92.00
2023-04-25T04:36:35.357Z,104.00
2023-04-25T04:37:40.353Z,108.00
2023-04-25T04:38:35.312Z,112.00
2023-04-25T04:39:35.308Z,124.00
2023-04-25T04:40:35.303Z,120.00
2023-04-25T04:41:35.321Z,124.00
2023-04-25T04:42:35.290Z,124.00
2023-04-25T04:43:35.275Z,128.00
2023-04-25T04:44:35.254Z,148.00
2023-04-25T04:45:35.238Z,160.00
2023-04-25T04:46:35.310Z,176.00
2023-04-25T04:47:35.275Z,220.00
2023-04-25T04:48:40.225Z,232.00
2023-04-25T04:49:35.191Z,180.00
2023-04-25T04:50:35.185Z,140.00
2023-04-25T04:51:35.172Z,112.00
2023-04-25T04:52:35.168Z,96.00
2023-04-25T04:53:35.167Z,80.00
2023-04-25T04:54:35.142Z,68.00
2023-04-25T04:55:35.130Z,64.00
2023-04-25T04:56:35.111Z,68.00
2023-04-25T04:57:35.109Z,76.00
2023-04-25T04:58:35.111Z,80.00
2023-04-25T04:59:40.124Z,92.00
2023-04-25T05:00:35.103Z,104.00
2023-04-25T05:01:35.057Z,128.00
2023-04-25T05:02:35.260Z,124.00
2023-04-25T05:03:35.118Z,152.00
2023-04-25T05:04:35.150Z,200.00
2023-04-25T05:05:35.015Z,228.00
2023-04-25T05:06:35.004Z,248.00
2023-04-25T05:07:35.034Z,252.00
2023-04-25T05:08:34.976Z,240.00
2023-04-25T05:09:34.962Z,248.00
2023-04-25T05:10:39.982Z,220.00
2023-04-25T05:11:34.970Z,196.00
2023-04-25T05:12:36.443Z,152.00
2023-04-25T05:13:34.960Z,124.00
2023-04-25T05:14:34.965Z,132.00
2023-04-25T05:15:34.897Z,144.00
2023-04-25T05:16:34.967Z,148.00
2023-04-25T05:17:34.965Z,132.00
2023-04-25T05:18:34.944Z,128.00
2023-04-25T05:19:34.888Z,136.00
2023-04-25T05:20:34.885Z,152.00
2023-04-25T05:21:39.866Z,188.00
2023-04-25T05:22:34.842Z,208.00
2023-04-25T05:23:34.803Z,228.00
2023-04-25T05:24:34.808Z,264.00
2023-04-25T05:25:34.798Z,344.00
2023-04-25T05:26:34.777Z,444.00
2023-04-25T05:27:34.768Z,496.00
2023-04-25T05:28:34.769Z,580.00
2023-04-25T05:29:34.748Z,644.00
2023-04-25T05:30:34.748Z,708.00
2023-04-25T05:31:34.729Z,720.00
2023-04-25T05:32:39.745Z,740.00
2023-04-25T05:33:34.692Z,796.00
2023-04-25T05:34:34.700Z,852.00
2023-04-25T05:35:34.718Z,976.00
2023-04-25T05:36:34.674Z,1108.00
2023-04-25T05:37:34.658Z,1148.00
2023-04-25T05:38:35.214Z,1132.00
2023-04-25T05:39:34.628Z,1136.00
2023-04-25T05:40:34.627Z,1200.00
2023-04-25T05:41:34.597Z,1324.00
2023-04-25T05:42:34.597Z,1476.00
2023-04-25T05:43:39.599Z,1652.00
2023-04-25T05:44:34.570Z,1772.00
2023-04-25T05:45:34.572Z,1876.00
2023-04-25T05:46:34.679Z,1892.00
2023-04-25T05:47:34.590Z,1844.00
2023-04-25T05:48:34.531Z,1788.00
2023-04-25T05:49:34.504Z,1800.00
2023-04-25T05:50:34.494Z,1916.00
2023-04-25T05:51:34.488Z,2048.00
2023-04-25T05:52:34.487Z,2052.00
2023-04-25T05:53:34.459Z,1924.00
2023-04-25T05:54:39.470Z,2060.00
2023-04-25T05:55:34.436Z,2156.00
2023-04-25T05:56:34.424Z,2192.00
2023-04-25T05:57:34.423Z,2196.00
2023-04-25T05:58:34.416Z,2092.00
2023-04-25T05:59:34.390Z,2012.00
2023-04-25T06:00:34.378Z,1932.00
2023-04-25T06:01:34.370Z,1912.00
2023-04-25T06:02:34.477Z,1916.00
2023-04-25T06:03:34.544Z,1844.00
2023-04-25T06:04:34.641Z,1660.00
2023-04-25T06:05:39.427Z,1440.00
2023-04-25T06:06:34.318Z,1488.00
2023-04-25T06:07:34.305Z,1472.00
2023-04-25T06:08:34.308Z,1532.00
2023-04-25T06:09:34.287Z,1428.00
2023-04-25T06:10:34.283Z,1344.00
2023-04-25T06:11:34.254Z,1344.00
2023-04-25T06:12:34.253Z,1368.00
2023-04-25T06:13:34.238Z,1296.00
2023-04-25T06:14:34.248Z,1208.00
2023-04-25T06:15:34.207Z,1064.00
2023-04-25T06:16:39.240Z,1100.00
2023-04-25T06:17:34.217Z,1088.00
2023-04-25T06:18:34.251Z,1052.00
2023-04-25T06:19:34.164Z,992.00
2023-04-25T06:20:34.158Z,932.00
2023-04-25T06:21:34.148Z,960.00
2023-04-25T06:22:34.147Z,1264.00
2023-04-25T06:23:34.125Z,1172.00
2023-04-25T06:24:34.127Z,1144.00
2023-04-25T06:25:34.101Z,1276.00
2023-04-25T06:26:34.081Z,1560.00
2023-04-25T06:27:39.094Z,1552.00
2023-04-25T06:28:34.094Z,1452.00
2023-04-25T06:29:34.058Z,1408.00
2023-04-25T06:30:34.044Z,1228.00
2023-04-25T06:31:34.068Z,944.00
2023-04-25T06:32:34.043Z,732.00
2023-04-25T06:33:34.013Z,728.00
2023-04-25T06:34:34.026Z,748.00
2023-04-25T06:35:33.984Z,740.00
2023-04-25T06:36:33.969Z,748.00
2023-04-25T06:37:33.963Z,892.00
2023-04-25T06:38:38.981Z,1088.00
2023-04-25T06:39:33.934Z,1216.00
2023-04-25T06:40:33.948Z,1240.00
2023-04-25T06:41:33.925Z,1164.00
2023-04-25T06:42:33.906Z,1404.00
2023-04-25T06:43:33.975Z,1616.00
2023-04-25T06:44:33.884Z,1796.00
2023-04-25T06:45:33.879Z,2240.00
2023-04-25T06:46:33.938Z,2688.00
2023-04-25T06:47:33.888Z,3148.00
2023-04-25T06:48:33.843Z,3460.00
2023-04-25T06:49:38.875Z,3472.00
2023-04-25T06:50:33.817Z,3136.00
2023-04-25T06:51:33.828Z,2836.00
2023-04-25T06:52:33.794Z,2708.00
2023-04-25T06:53:33.790Z,2800.00
2023-04-25T06:54:33.768Z,2988.00
2023-04-25T06:55:33.755Z,3140.00
2023-04-25T06:56:33.761Z,3224.00
2023-04-25T06:57:33.753Z,3296.00
2023-04-25T06:58:33.730Z,3356.00
2023-04-25T06:59:33.719Z,3352.00
2023-04-25T07:00:38.757Z,3368.00
2023-04-25T07:01:33.692Z,3272.00
2023-04-25T07:02:33.797Z,3208.00
2023-04-25T07:03:33.757Z,3096.00
2023-04-25T07:04:33.984Z,3124.00
2023-04-25T07:05:33.674Z,3096.00
2023-04-25T07:06:33.636Z,2880.00
2023-04-25T07:07:33.632Z,2668.00
2023-04-25T07:08:33.612Z,2796.00
2023-04-25T07:09:33.609Z,2752.00
2023-04-25T07:10:33.593Z,2976.00
2023-04-25T07:11:38.614Z,3224.00
2023-04-25T07:12:33.567Z,3252.00
2023-04-25T07:13:33.573Z,3276.00
2023-04-25T07:14:33.551Z,3276.00
2023-04-25T07:15:33.567Z,3244.00
2023-04-25T07:16:33.569Z,3220.00
2023-04-25T07:17:33.527Z,3184.00
2023-04-25T07:18:33.509Z,3180.00
2023-04-25T07:19:33.489Z,3224.00
2023-04-25T07:20:33.480Z,3288.00
2023-04-25T07:21:33.505Z,3416.00
2023-04-25T07:22:38.485Z,3516.00
2023-04-25T07:23:33.458Z,3628.00
2023-04-25T07:24:33.450Z,3732.00
2023-04-25T07:25:33.426Z,3936.00
2023-04-25T07:26:33.426Z,4064.00
2023-04-25T07:27:33.414Z,4260.00
2023-04-25T07:28:33.397Z,4320.00
2023-04-25T07:29:33.376Z,4444.00
2023-04-25T07:30:33.371Z,4448.00
2023-04-25T07:31:33.402Z,4548.00
2023-04-25T07:32:33.354Z,4532.00
2023-04-25T07:33:38.372Z,4452.00
2023-04-25T07:34:33.319Z,4292.00
2023-04-25T07:35:33.311Z,3976.00
2023-04-25T07:36:33.303Z,3680.00
2023-04-25T07:37:33.307Z,3456.00
2023-04-25T07:38:33.290Z,3476.00
2023-04-25T07:39:33.279Z,3456.00
2023-04-25T07:40:33.252Z,3440.00
2023-04-25T07:41:33.238Z,3588.00
2023-04-25T07:42:33.227Z,3984.00
2023-04-25T07:43:33.231Z,4548.00
2023-04-25T07:44:38.226Z,5116.00
2023-04-25T07:45:33.275Z,5712.00
2023-04-25T07:46:33.269Z,6132.00
2023-04-25T07:47:33.228Z,6380.00
2023-04-25T07:48:33.158Z,6684.00
2023-04-25T07:49:33.154Z,6572.00
2023-04-25T07:50:33.138Z,6508.00
2023-04-25T07:51:33.141Z,6584.00
2023-04-25T07:52:33.117Z,6704.00
2023-04-25T07:53:33.180Z,7052.00
2023-04-25T07:54:33.103Z,7224.00
2023-04-25T07:55:38.104Z,8048.00
2023-04-25T07:56:45.160Z,7704.00
2023-04-25T07:57:33.064Z,8268.00
2023-04-25T07:58:33.062Z,8852.00
2023-04-25T07:59:33.033Z,9044.00
2023-04-25T08:00:33.026Z,8924.00
2023-04-25T08:01:33.011Z,8720.00
2023-04-25T08:02:33.074Z,8528.00
2023-04-25T08:03:33.107Z,8180.00
2023-04-25T08:04:33.310Z,7636.00
2023-04-25T08:05:33.172Z,7108.00
2023-04-25T08:06:38.100Z,6904.00
2023-04-25T08:07:32.945Z,6744.00
2023-04-25T08:08:32.943Z,6916.00
2023-04-25T08:09:32.943Z,7232.00
2023-04-25T08:10:32.908Z,7780.00
2023-04-25T08:11:32.906Z,8404.00
2023-04-25T08:12:32.887Z,8992.00
2023-04-25T08:13:32.888Z,9280.00
2023-04-25T08:14:32.863Z,9272.00
2023-04-25T08:15:32.948Z,9468.00
2023-04-25T08:16:32.936Z,9152.00
2023-04-25T08:17:37.897Z,9000.00
2023-04-25T08:18:32.832Z,9240.00
2023-04-25T08:19:32.813Z,10068.00
2023-04-25T08:20:32.802Z,9816.00
2023-04-25T08:21:32.796Z,9836.00
2023-04-25T08:22:32.776Z,9692.00
2023-04-25T08:23:32.775Z,10108.00
2023-04-25T08:24:32.761Z,10964.00
2023-04-25T08:25:32.763Z,12036.00
2023-04-25T08:26:32.736Z,11624.00
2023-04-25T08:27:32.730Z,11780.00
2023-04-25T08:28:37.737Z,11260.00
2023-04-25T08:29:32.700Z,10312.00
2023-04-25T08:30:32.692Z,9516.00
2023-04-25T08:31:32.723Z,9080.00
2023-04-25T08:32:32.662Z,8632.00
2023-04-25T08:33:32.671Z,9152.00
2023-04-25T08:34:32.646Z,8124.00
2023-04-25T08:35:32.629Z,8500.00
2023-04-25T08:36:39.391Z,10060.00
2023-04-25T08:37:32.614Z,11416.00
2023-04-25T08:38:32.608Z,12056.00
2023-04-25T08:39:37.627Z,12776.00
2023-04-25T08:40:32.589Z,13056.00
2023-04-25T08:41:32.623Z,13096.00
2023-04-25T08:42:32.555Z,13088.00
2023-04-25T08:43:32.551Z,13360.00
2023-04-25T08:44:32.727Z,12700.00
2023-04-25T08:45:32.525Z,11908.00
2023-04-25T08:46:32.570Z,11804.00
2023-04-25T08:47:32.505Z,11728.00
2023-04-25T08:48:32.487Z,11100.00
2023-04-25T08:49:32.477Z,10136.00
2023-04-25T08:50:37.478Z,10116.00
2023-04-25T08:51:32.453Z,10928.00
2023-04-25T08:52:32.436Z,11948.00
2023-04-25T08:53:33.890Z,13284.00
2023-04-25T08:54:34.342Z,15356.00
2023-04-25T08:55:32.407Z,16992.00
2023-04-25T08:56:32.388Z,18304.00
2023-04-25T08:57:32.398Z,25344.00
2023-04-25T08:58:32.378Z,25600.00
2023-04-25T08:59:32.365Z,26944.00
2023-04-25T09:00:32.596Z,17120.00
2023-04-25T09:01:37.490Z,15768.00
2023-04-25T09:02:32.448Z,14468.00
2023-04-25T09:03:32.424Z,13368.00
2023-04-25T09:04:32.307Z,16832.00
2023-04-25T09:05:32.292Z,12204.00
2023-04-25T09:06:32.279Z,12236.00
2023-04-25T09:07:32.260Z,14220.00
2023-04-25T09:08:32.248Z,15244.00
2023-04-25T09:09:32.304Z,15348.00
2023-04-25T09:11:32.214Z,14012.00
2023-04-25T09:12:37.305Z,13940.00
2023-04-25T09:13:32.224Z,16000.00
2023-04-25T09:14:32.188Z,16576.00
2023-04-25T09:15:32.172Z,20000.00
2023-04-25T09:16:33.653Z,13680.00
2023-04-25T09:17:32.184Z,13276.00
2023-04-25T09:18:32.138Z,16288.00
2023-04-25T09:19:40.206Z,13592.00
2023-04-25T09:20:35.236Z,13668.00
2023-04-25T09:21:32.107Z,13016.00
2023-04-25T09:22:32.089Z,13876.00
2023-04-25T09:23:37.099Z,13312.00
2023-04-25T09:24:32.080Z,12524.00
2023-04-25T09:25:32.059Z,11796.00
2023-04-25T09:26:32.042Z,9788.00
2023-04-25T09:27:32.040Z,9760.00
2023-04-25T09:28:32.043Z,10380.00
2023-04-25T09:29:32.016Z,11468.00
2023-04-25T09:30:32.013Z,12344.00
2023-04-25T09:31:32.028Z,12460.00
2023-04-25T09:32:32.033Z,12512.00
2023-04-25T09:33:31.968Z,12972.00
2023-04-25T09:34:36.987Z,12916.00
2023-04-25T09:35:31.948Z,12476.00
2023-04-25T09:36:31.926Z,13712.00
2023-04-25T09:37:31.924Z,12940.00
2023-04-25T09:38:31.916Z,13132.00
2023-04-25T09:39:31.897Z,11724.00
2023-04-25T09:40:31.900Z,11520.00
2023-04-25T09:41:31.877Z,11032.00
2023-04-25T09:42:31.859Z,10904.00
2023-04-25T09:43:31.851Z,10632.00
2023-04-25T09:44:31.966Z,10380.00
2023-04-25T09:45:36.858Z,9692.00
2023-04-25T09:46:31.853Z,10788.00
2023-04-25T09:47:31.881Z,11576.00
2023-04-25T09:48:31.809Z,11372.00
2023-04-25T09:49:31.790Z,12328.00
2023-04-25T09:50:31.835Z,12876.00
2023-04-25T09:51:31.764Z,11104.00
2023-04-25T09:52:31.753Z,8336.00
2023-04-25T09:53:31.753Z,7196.00
2023-04-25T09:54:31.733Z,7584.00
2023-04-25T09:55:31.735Z,10052.00
2023-04-25T09:56:36.720Z,12892.00
2023-04-25T09:57:31.691Z,14580.00
2023-04-25T09:58:33.220Z,16768.00
2023-04-25T09:59:31.687Z,14192.00
2023-04-25T10:00:31.714Z,15436.00
2023-04-25T10:01:31.771Z,17120.00
2023-04-25T10:02:31.711Z,34016.00
2023-04-25T10:03:31.876Z,19168.00
2023-04-25T10:04:33.865Z,38464.00
2023-04-25T10:05:31.613Z,39744.00
2023-04-25T10:06:31.602Z,60448.00
2023-04-25T10:07:36.601Z,23488.00
2023-04-25T10:08:31.564Z,26080.00
2023-04-25T10:09:31.559Z,21824.00
2023-04-25T10:10:32.305Z,14536.00
2023-04-25T10:11:31.540Z,14704.00
2023-04-25T10:12:31.522Z,17728.00
2023-04-25T10:13:31.513Z,17312.00
2023-04-25T10:14:31.497Z,23936.00
2023-04-25T10:15:31.551Z,37792.00
2023-04-25T10:16:31.709Z,27712.00
2023-04-25T10:17:31.522Z,25152.00
2023-04-25T10:18:36.473Z,20416.00
2023-04-25T10:19:31.446Z,15736.00
2023-04-25T10:20:31.434Z,13960.00
2023-04-25T10:21:31.428Z,11264.00
2023-04-25T10:22:31.410Z,9864.00
2023-04-25T10:23:31.400Z,7996.00
2023-04-25T10:24:31.383Z,5760.00
2023-04-25T10:25:31.373Z,4880.00
2023-04-25T10:26:31.416Z,4336.00
2023-04-25T10:27:31.365Z,4028.00
2023-04-25T10:28:31.336Z,4148.00
2023-04-25T10:29:36.358Z,4312.00
2023-04-25T10:30:31.314Z,4408.00
2023-04-25T10:31:31.369Z,5868.00
2023-04-25T10:32:31.400Z,6456.00
2023-04-25T10:33:31.285Z,6444.00
2023-04-25T10:34:31.269Z,6792.00
2023-04-25T10:35:31.257Z,7980.00
2023-04-25T10:36:31.244Z,9204.00
2023-04-25T10:37:31.251Z,8692.00
2023-04-25T10:38:31.246Z,7528.00
2023-04-25T10:39:31.233Z,8064.00
2023-04-25T10:40:36.222Z,9740.00
2023-04-25T10:41:31.190Z,12160.00
2023-04-25T10:42:31.211Z,14844.00
2023-04-25T10:43:31.166Z,17184.00
2023-04-25T10:44:31.186Z,18496.00
2023-04-25T10:45:31.153Z,19456.00
2023-04-25T10:46:31.163Z,16704.00
2023-04-25T10:47:31.157Z,15960.00
2023-04-25T10:48:31.129Z,12508.00
2023-04-25T10:49:31.102Z,12780.00
2023-04-25T10:50:31.092Z,12328.00
2023-04-25T10:51:47.305Z,13084.00
2023-04-25T10:52:32.085Z,14760.00
2023-04-25T10:53:31.052Z,14844.00
2023-04-25T10:54:31.042Z,14100.00
2023-04-25T10:55:31.032Z,8452.00
2023-04-25T10:56:31.033Z,7284.00
2023-04-25T10:57:31.025Z,6516.00
2023-04-25T10:58:30.996Z,6756.00
2023-04-25T10:59:30.991Z,7476.00
2023-04-25T11:00:42.974Z,7660.00
2023-04-25T11:01:30.992Z,7724.00
2023-04-25T11:02:36.085Z,7332.00
2023-04-25T11:03:31.013Z,7224.00
2023-04-25T11:04:31.480Z,7884.00
2023-04-25T11:05:30.919Z,7376.00
2023-04-25T11:06:30.918Z,6592.00
2023-04-25T11:07:30.906Z,6840.00
2023-04-25T11:08:30.883Z,7580.00
2023-04-25T11:09:30.876Z,7840.00
2023-04-25T11:10:30.868Z,8516.00
2023-04-25T11:11:30.871Z,9244.00
2023-04-25T11:12:30.853Z,8756.00
2023-04-25T11:13:35.870Z,8544.00
2023-04-25T11:14:30.815Z,7112.00
2023-04-25T11:15:30.828Z,5832.00
2023-04-25T11:16:30.814Z,6064.00
2023-04-25T11:17:30.885Z,6052.00
2023-04-25T11:18:30.823Z,5672.00
2023-04-25T11:19:30.771Z,5748.00
2023-04-25T11:20:30.878Z,5772.00
2023-04-25T11:21:30.742Z,6740.00
2023-04-25T11:22:30.732Z,9416.00
2023-04-25T11:23:30.731Z,11556.00
2023-04-25T11:24:35.865Z,11264.00
2023-04-25T11:25:30.692Z,10520.00
2023-04-25T11:26:30.683Z,9704.00
2023-04-25T11:27:30.692Z,10264.00
2023-04-25T11:28:30.661Z,10536.00
2023-04-25T11:29:30.654Z,11568.00
2023-04-25T11:30:30.659Z,13964.00
2023-04-25T11:31:30.671Z,18048.00
2023-04-25T11:32:30.664Z,20864.00
2023-04-25T11:33:30.614Z,20032.00
2023-04-25T11:34:30.594Z,14036.00
2023-04-25T11:35:35.687Z,14832.00
2023-04-25T11:36:30.595Z,13704.00
2023-04-25T11:37:30.560Z,19584.00
2023-04-25T11:38:30.558Z,18112.00
2023-04-25T11:39:30.541Z,12360.00
2023-04-25T11:40:30.532Z,10768.00
2023-04-25T11:41:30.517Z,13476.00
2023-04-25T11:42:30.503Z,10336.00
2023-04-25T11:43:30.794Z,8780.00
2023-04-25T11:44:30.533Z,8828.00
2023-04-25T11:45:30.471Z,11008.00
2023-04-25T11:46:35.676Z,17920.00
2023-04-25T11:47:30.559Z,17248.00
2023-04-25T11:48:30.449Z,17344.00
2023-04-25T11:49:30.463Z,15360.00
2023-04-25T11:50:30.413Z,12616.00
2023-04-25T11:51:30.427Z,14020.00
2023-04-25T11:52:30.460Z,13740.00
2023-04-25T11:53:30.389Z,15020.00
2023-04-25T11:54:30.414Z,9300.00
2023-04-25T11:55:30.361Z,9520.00
2023-04-25T11:56:30.373Z,9368.00
2023-04-25T11:57:35.367Z,10528.00
2023-04-25T11:58:30.398Z,12912.00
2023-04-25T11:59:30.319Z,14228.00
2023-04-25T12:00:30.298Z,11852.00
2023-04-25T12:01:31.811Z,10724.00
2023-04-25T12:02:30.382Z,11564.00
2023-04-25T12:03:30.516Z,11352.00
2023-04-25T12:04:30.485Z,9116.00
2023-04-25T12:05:32.724Z,9920.00
2023-04-25T12:06:30.277Z,12368.00
2023-04-25T12:07:30.241Z,17984.00
2023-04-25T12:08:35.250Z,12112.00
2023-04-25T12:09:30.216Z,11152.00
2023-04-25T12:10:30.261Z,11056.00
2023-04-25T12:11:30.178Z,10348.00
2023-04-25T12:12:30.164Z,11368.00
2023-04-25T12:13:30.165Z,10832.00
2023-04-25T12:14:30.139Z,10148.00
2023-04-25T12:15:30.136Z,9716.00
2023-04-25T12:16:30.227Z,10168.00
2023-04-25T12:17:30.172Z,10224.00
2023-04-25T12:18:30.108Z,10084.00
2023-04-25T12:19:35.116Z,10240.00
2023-04-25T12:20:30.082Z,10008.00
2023-04-25T12:21:30.068Z,10184.00
2023-04-25T12:22:30.151Z,9160.00
2023-04-25T12:23:30.069Z,9436.00
2023-04-25T12:24:30.039Z,10028.00
2023-04-25T12:25:30.024Z,10336.00
2023-04-25T12:26:30.013Z,10924.00
2023-04-25T12:27:30.001Z,11600.00
2023-04-25T12:28:30.109Z,12312.00